createdAt,value
2019-02-18T00:02:33.591Z,64.54
2019-02-18T00:05:38.036Z,65.24
2019-02-18T00:08:42.475Z,64.50
2019-02-18T00:11:47.217Z,64.35
2019-02-18T00:14:51.659Z,64.71
2019-02-18T00:17:56.095Z,65.11
2019-02-18T00:21:00.527Z,64.65
2019-02-18T00:24:05.222Z,64.31
2019-02-18T00:27:10.053Z,65.20
2019-02-18T00:30:14.987Z,64.88
2019-02-18T00:33:19.432Z,65.23
2019-02-18T00:36:23.870Z,64.92
2019-02-18T00:39:28.674Z,65.08
2019-02-18T00:42:33.119Z,66.19
2019-02-18T00:45:37.940Z,66.13
2019-02-18T00:48:42.763Z,65.51
2019-02-18T00:51:47.491Z,65.79
2019-02-18T00:54:52.229Z,65.88
2019-02-18T00:57:56.675Z,65.49
2019-02-18T01:01:01.493Z,65.82
2019-02-18T01:04:06.532Z,66.06
2019-02-18T01:07:10.962Z,65.94
2019-02-18T01:10:16.198Z,66.74
2019-02-18T01:13:21.324Z,66.14
2019-02-18T01:16:25.757Z,66.12
2019-02-18T01:19:30.791Z,65.99
2019-02-18T01:22:35.226Z,66.41
2019-02-18T01:25:39.658Z,66.66
2019-02-18T01:28:44.094Z,66.61
2019-02-18T01:31:48.525Z,65.97
2019-02-18T01:34:52.958Z,65.98
2019-02-18T01:37:57.406Z,66.20
2019-02-18T01:41:02.160Z,66.31
2019-02-18T01:44:06.599Z,66.71
2019-02-18T01:47:11.316Z,66.45
2019-02-18T01:50:16.499Z,66.51
2019-02-18T01:53:21.283Z,66.77
2019-02-18T01:56:26.016Z,67.45
2019-02-18T01:59:30.461Z,67.38
2019-02-18T02:02:35.186Z,66.88
2019-02-18T02:05:39.902Z,66.79
2019-02-18T02:08:44.352Z,67.16
2019-02-18T02:11:48.780Z,67.68
2019-02-18T02:14:53.485Z,67.99
2019-02-18T02:17:57.920Z,68.52
2019-02-18T02:21:02.359Z,68.37
2019-02-18T02:24:06.798Z,67.73
2019-02-18T02:27:11.478Z,67.74
2019-02-18T02:30:16.211Z,67.34
2019-02-18T02:33:20.655Z,68.35
2019-02-18T02:36:25.089Z,68.32
2019-02-18T02:39:29.794Z,67.91
2019-02-18T02:42:34.215Z,68.43
2019-02-18T02:45:38.661Z,68.70
2019-02-18T02:48:43.094Z,68.37
2019-02-18T02:51:47.791Z,67.76
2019-02-18T02:54:52.524Z,68.30
2019-02-18T02:57:56.951Z,67.46
2019-02-18T03:01:01.676Z,67.68
2019-02-18T03:04:06.112Z,68.04
2019-02-18T03:07:10.544Z,68.55
2019-02-18T03:10:15.356Z,68.54
2019-02-18T03:13:19.784Z,67.20
2019-02-18T03:16:24.615Z,67.58
2019-02-18T03:19:29.049Z,68.50
2019-02-18T03:22:33.486Z,69.26
2019-02-18T03:25:38.303Z,68.59
2019-02-18T03:28:59.347Z,68.46
2019-02-18T03:32:04.040Z,69.26
2019-02-18T03:35:08.482Z,68.68
2019-02-18T03:38:12.898Z,69.13
2019-02-18T03:41:17.344Z,67.56
2019-02-18T03:44:21.762Z,68.49
2019-02-18T03:47:26.204Z,68.73
2019-02-18T03:50:30.888Z,68.26
2019-02-18T03:53:35.620Z,68.46
2019-02-18T03:56:40.342Z,69.15
2019-02-18T03:59:44.875Z,69.23
2019-02-18T04:02:49.607Z,68.53
2019-02-18T04:05:54.052Z,69.03
2019-02-18T04:08:58.468Z,69.29
2019-02-18T04:12:02.913Z,68.57
2019-02-18T04:15:11.109Z,69.04
2019-02-18T04:18:15.543Z,69.46
2019-02-18T04:21:20.003Z,68.91
2019-02-18T04:24:24.425Z,70.25
2019-02-18T04:27:28.868Z,70.32
2019-02-18T04:30:33.304Z,70.24
2019-02-18T04:33:37.735Z,69.82
2019-02-18T04:36:42.465Z,69.41
2019-02-18T04:39:46.895Z,67.75
2019-02-18T04:42:51.332Z,68.24
2019-02-18T04:45:56.144Z,67.80
2019-02-18T04:49:00.570Z,67.97
2019-02-18T04:52:05.009Z,68.04
2019-02-18T04:55:11.574Z,68.83
2019-02-18T04:58:16.015Z,68.89
2019-02-18T05:01:20.455Z,68.36
2019-02-18T05:04:24.882Z,68.87
2019-02-18T05:07:29.317Z,69.33
2019-02-18T05:10:33.743Z,69.12
2019-02-18T05:13:38.189Z,68.69
2019-02-18T05:16:42.933Z,69.30
2019-02-18T05:19:47.370Z,69.02
2019-02-18T05:22:52.084Z,68.88
2019-02-18T05:25:56.517Z,69.24
2019-02-18T05:29:00.956Z,69.20
2019-02-18T05:32:05.396Z,67.63
2019-02-18T05:35:09.901Z,68.57
2019-02-18T05:38:14.613Z,69.13
2019-02-18T05:41:19.051Z,69.04
2019-02-18T05:44:23.487Z,69.15
2019-02-18T05:47:27.932Z,69.47
2019-02-18T05:50:32.356Z,70.15
2019-02-18T05:53:36.798Z,70.22
2019-02-18T05:56:41.283Z,69.46
2019-02-18T05:59:46.107Z,70.29
2019-02-18T06:02:50.542Z,70.04
2019-02-18T06:05:54.991Z,70.07
2019-02-18T06:08:59.467Z,70.19
2019-02-18T06:12:03.886Z,69.93
2019-02-18T06:15:10.254Z,70.26
2019-02-18T06:18:14.699Z,70.09
2019-02-18T06:21:19.411Z,70.21
2019-02-18T06:24:23.847Z,70.09
2019-02-18T06:27:28.283Z,70.46
2019-02-18T06:30:32.722Z,70.61
2019-02-18T06:33:37.163Z,70.42
2019-02-18T06:36:41.603Z,70.31
2019-02-18T06:39:46.039Z,70.44
2019-02-18T06:42:50.480Z,69.88
2019-02-18T06:45:56.538Z,68.71
2019-02-18T06:49:02.623Z,67.40
2019-02-18T06:52:07.051Z,64.88
2019-02-18T06:55:11.489Z,62.01
2019-02-18T06:58:21.101Z,61.20
2019-02-18T07:01:29.656Z,61.58
2019-02-18T07:04:41.748Z,62.58
2019-02-18T07:07:50.554Z,63.54
2019-02-18T07:10:56.625Z,64.21
2019-02-18T07:14:01.364Z,65.22
2019-02-18T07:17:05.768Z,65.76
2019-02-18T07:20:10.278Z,66.52
2019-02-18T07:23:15.087Z,67.65
2019-02-18T07:26:19.533Z,67.51
2019-02-18T07:29:23.962Z,67.44
2019-02-18T07:32:28.706Z,67.66
2019-02-18T07:35:33.437Z,67.62
2019-02-18T07:38:38.157Z,66.98
2019-02-18T07:41:42.889Z,66.12
2019-02-18T07:44:47.619Z,65.98
2019-02-18T07:47:52.354Z,65.94
2019-02-18T07:50:57.183Z,65.87
2019-02-18T07:54:01.645Z,67.13
2019-02-18T07:57:06.065Z,66.29
2019-02-18T08:00:14.212Z,65.94
2019-02-18T08:03:18.647Z,65.81
2019-02-18T08:06:23.400Z,66.12
2019-02-18T08:09:27.850Z,66.83
2019-02-18T08:12:32.267Z,66.24
2019-02-18T08:15:36.711Z,65.85
2019-02-18T08:18:41.150Z,65.34
2019-02-18T08:21:45.577Z,65.30
2019-02-18T08:24:50.352Z,63.72
2019-02-18T08:27:55.083Z,64.25
2019-02-18T08:30:59.817Z,63.75
2019-02-18T08:34:04.254Z,63.55
2019-02-18T08:37:08.691Z,63.82
2019-02-18T08:40:21.945Z,62.76
2019-02-18T08:43:19.281Z,62.72
2019-02-18T08:46:23.977Z,61.98
2019-02-18T08:49:28.426Z,61.41
2019-02-18T08:52:32.854Z,61.80
2019-02-18T08:55:37.302Z,60.25
2019-02-18T08:58:41.722Z,60.33
2019-02-18T09:01:46.181Z,60.50
2019-02-18T09:04:50.615Z,59.55
2019-02-18T09:07:55.042Z,58.63
2019-02-18T09:10:59.481Z,58.62
2019-02-18T09:14:04.194Z,57.74
2019-02-18T09:17:08.634Z,57.07
2019-02-18T09:20:13.138Z,57.09
2019-02-18T09:23:28.160Z,56.43
2019-02-18T09:26:32.611Z,56.59
2019-02-18T09:29:37.036Z,55.54
2019-02-18T09:32:41.805Z,54.79
2019-02-18T09:35:46.252Z,54.95
2019-02-18T09:38:50.953Z,54.71
2019-02-18T09:41:55.686Z,54.57
2019-02-18T09:45:00.440Z,54.59
2019-02-18T09:48:04.844Z,54.18
2019-02-18T09:51:09.280Z,52.93
2019-02-18T09:54:13.718Z,48.69
2019-02-18T09:57:18.164Z,41.61
2019-02-18T10:00:22.609Z,38.14
2019-02-18T10:03:32.095Z,35.42
2019-02-18T10:06:33.213Z,33.23
2019-02-18T10:09:37.649Z,31.88
2019-02-18T10:12:42.393Z,30.19
2019-02-18T10:15:46.822Z,30.99
2019-02-18T10:18:51.534Z,29.49
2019-02-18T10:21:56.265Z,30.11
2019-02-18T10:25:00.775Z,32.41
2019-02-18T10:28:05.224Z,31.85
2019-02-18T10:31:09.684Z,32.45
2019-02-18T10:34:14.124Z,31.87
2019-02-18T10:37:18.893Z,32.38
2019-02-18T10:40:23.331Z,32.93
2019-02-18T10:43:32.528Z,33.70
2019-02-18T10:46:33.953Z,32.68
2019-02-18T10:49:38.622Z,32.81
2019-02-18T10:52:43.067Z,32.63
2019-02-18T10:55:47.514Z,33.49
2019-02-18T10:58:51.954Z,33.36
2019-02-18T11:01:56.409Z,31.93
2019-02-18T11:05:00.840Z,31.96
2019-02-18T11:08:05.587Z,32.22
2019-02-18T11:11:16.935Z,31.66
2019-02-18T11:14:16.794Z,31.97
2019-02-18T11:17:21.311Z,31.18
2019-02-18T11:20:25.748Z,29.55
2019-02-18T11:23:30.470Z,29.57
2019-02-18T11:26:34.910Z,28.53
2019-02-18T11:29:39.346Z,28.79
2019-02-18T11:32:43.792Z,27.93
2019-02-18T11:35:48.229Z,27.30
2019-02-18T11:38:53.299Z,28.27
2019-02-18T11:41:58.033Z,26.26
2019-02-18T11:45:02.478Z,28.83
2019-02-18T11:48:06.916Z,26.84
2019-02-18T11:51:11.609Z,26.75
2019-02-18T11:54:16.054Z,26.30
2019-02-18T11:57:20.762Z,27.06
2019-02-18T12:00:25.499Z,27.80
2019-02-18T12:03:29.940Z,28.54
2019-02-18T12:06:34.378Z,28.45
2019-02-18T12:09:40.820Z,27.58
2019-02-18T12:12:45.050Z,27.98
2019-02-18T12:15:49.487Z,27.50
2019-02-18T12:18:53.931Z,27.57
2019-02-18T12:21:58.614Z,27.40
2019-02-18T12:25:03.063Z,25.67
2019-02-18T12:28:07.505Z,26.96
2019-02-18T12:31:11.940Z,26.14
2019-02-18T12:34:16.391Z,26.48
2019-02-18T12:37:21.138Z,25.69
2019-02-18T12:40:25.575Z,26.57
2019-02-18T12:43:30.295Z,25.82
2019-02-18T12:46:35.432Z,25.75
2019-02-18T12:49:42.200Z,24.89
2019-02-18T12:52:46.647Z,25.06
2019-02-18T12:55:51.366Z,24.61
2019-02-18T12:58:55.809Z,23.74
2019-02-18T13:02:00.517Z,24.06
2019-02-18T13:05:06.981Z,24.56
2019-02-18T13:08:11.425Z,24.82
2019-02-18T13:11:15.897Z,24.21
2019-02-18T13:14:20.396Z,24.09
2019-02-18T13:17:25.096Z,23.84
2019-02-18T13:20:29.540Z,23.81
2019-02-18T13:23:33.988Z,23.45
2019-02-18T13:26:38.425Z,21.67
2019-02-18T13:29:43.203Z,19.67
2019-02-18T13:32:47.639Z,18.52
2019-02-18T13:35:52.085Z,17.54
2019-02-18T13:38:56.533Z,17.07
2019-02-18T13:42:07.278Z,15.99
2019-02-18T13:45:08.986Z,15.88
2019-02-18T13:48:13.433Z,15.28
2019-02-18T13:51:24.049Z,15.37
2019-02-18T13:54:24.042Z,15.45
2019-02-18T13:57:28.743Z,16.30
2019-02-18T14:00:33.886Z,15.29
2019-02-18T14:03:38.334Z,16.49
2019-02-18T14:06:42.776Z,16.83
2019-02-18T14:09:47.494Z,17.08
2019-02-18T14:12:52.002Z,17.19
2019-02-18T14:15:56.445Z,17.56
2019-02-18T14:19:00.894Z,16.34
2019-02-18T14:22:06.643Z,17.18
2019-02-18T14:25:11.605Z,18.87
2019-02-18T14:28:16.361Z,18.79
2019-02-18T14:31:20.803Z,18.54
2019-02-18T14:34:25.517Z,18.95
2019-02-18T14:37:29.949Z,18.57
2019-02-18T14:40:34.569Z,18.49
2019-02-18T14:43:39.035Z,18.02
2019-02-18T14:46:43.472Z,17.06
2019-02-18T14:49:47.922Z,19.47
2019-02-18T14:52:52.765Z,20.13
2019-02-18T14:55:57.217Z,21.69
2019-02-18T14:59:01.734Z,23.66
2019-02-18T15:02:06.650Z,23.91
2019-02-18T15:05:11.091Z,25.36
2019-02-18T15:08:15.809Z,26.83
2019-02-18T15:11:20.542Z,27.22
2019-02-18T15:14:24.985Z,27.51
2019-02-18T15:17:30.003Z,27.77
2019-02-18T15:20:34.452Z,27.93
2019-02-18T15:23:38.884Z,28.13
2019-02-18T15:26:43.514Z,29.25
2019-02-18T15:29:47.958Z,28.86
2019-02-18T15:32:52.431Z,29.90
2019-02-18T15:35:56.875Z,30.39
2019-02-18T15:39:01.309Z,31.17
2019-02-18T15:42:06.103Z,30.93
2019-02-18T15:45:11.085Z,30.43
2019-02-18T15:48:15.572Z,30.61
2019-02-18T15:51:20.029Z,32.03
2019-02-18T15:54:24.728Z,31.73
2019-02-18T15:57:29.203Z,32.38
2019-02-18T16:00:33.644Z,31.13
2019-02-18T16:03:38.080Z,31.33
2019-02-18T16:06:42.528Z,34.45
2019-02-18T16:09:46.988Z,35.92
2019-02-18T16:12:51.675Z,37.53
2019-02-18T16:15:56.244Z,38.32
2019-02-18T16:19:00.677Z,38.38
2019-02-18T16:22:05.117Z,39.25
2019-02-18T16:25:17.010Z,39.53
2019-02-18T16:28:21.512Z,40.48
2019-02-18T16:31:25.958Z,39.82
2019-02-18T16:34:30.394Z,41.33
2019-02-18T16:37:34.838Z,41.79
2019-02-18T16:40:39.281Z,42.28
2019-02-18T16:43:44.042Z,43.15
2019-02-18T16:46:48.445Z,42.98
2019-02-18T16:49:52.902Z,43.85
2019-02-18T16:52:57.331Z,43.87
2019-02-18T16:56:01.768Z,43.57
2019-02-18T16:59:06.206Z,43.91
2019-02-18T17:02:10.656Z,44.72
2019-02-18T17:05:15.092Z,44.79
2019-02-18T17:08:19.535Z,44.85
2019-02-18T17:11:23.983Z,45.26
2019-02-18T17:14:28.423Z,45.67
2019-02-18T17:17:32.879Z,45.88
2019-02-18T17:20:37.321Z,47.11
2019-02-18T17:23:41.772Z,46.76
2019-02-18T17:26:46.225Z,46.95
2019-02-18T17:29:50.658Z,47.23
2019-02-18T17:32:55.482Z,47.86
2019-02-18T17:35:59.920Z,48.36
2019-02-18T17:39:05.262Z,48.38
2019-02-18T17:42:10.054Z,48.41
2019-02-18T17:45:17.103Z,48.30
2019-02-18T17:48:21.538Z,48.63
2019-02-18T17:51:25.982Z,49.71
2019-02-18T17:54:30.758Z,50.02
2019-02-18T17:57:35.194Z,49.73
2019-02-18T18:00:44.013Z,50.42
2019-02-18T18:03:48.445Z,50.74
2019-02-18T18:06:53.186Z,50.76
2019-02-18T18:09:57.666Z,51.27
2019-02-18T18:13:02.111Z,51.32
2019-02-18T18:16:06.535Z,52.07
2019-02-18T18:19:11.265Z,52.70
2019-02-18T18:22:15.704Z,52.63
2019-02-18T18:25:20.130Z,52.33
2019-02-18T18:28:24.569Z,53.09
2019-02-18T18:31:29.002Z,53.77
2019-02-18T18:34:33.445Z,54.04
2019-02-18T18:37:37.882Z,54.35
2019-02-18T18:40:42.312Z,54.34
2019-02-18T18:43:46.745Z,53.85
2019-02-18T18:46:51.483Z,54.08
2019-02-18T18:49:56.625Z,54.30
2019-02-18T18:53:01.072Z,54.37
2019-02-18T18:56:05.550Z,54.54
2019-02-18T18:59:09.987Z,54.80
2019-02-18T19:02:14.414Z,55.26
2019-02-18T19:05:18.848Z,54.90
2019-02-18T19:08:23.297Z,54.46
2019-02-18T19:11:27.730Z,54.04
2019-02-18T19:14:32.293Z,54.70
2019-02-18T19:17:36.731Z,55.01
2019-02-18T19:20:41.160Z,54.60
2019-02-18T19:23:45.597Z,54.67
2019-02-18T19:26:50.029Z,54.79
2019-02-18T19:29:55.156Z,55.09
2019-02-18T19:32:59.641Z,55.81
2019-02-18T19:36:04.413Z,56.29
2019-02-18T19:39:09.234Z,56.40
2019-02-18T19:42:13.672Z,57.00
2019-02-18T19:45:23.499Z,56.82
2019-02-18T19:48:27.943Z,57.30
2019-02-18T19:51:32.376Z,57.15
2019-02-18T19:54:36.809Z,57.13
2019-02-18T19:57:41.520Z,56.89
2019-02-18T20:00:45.970Z,57.05
2019-02-18T20:03:50.393Z,56.98
2019-02-18T20:06:54.827Z,56.56
2019-02-18T20:09:59.535Z,56.26
2019-02-18T20:13:04.280Z,56.75
2019-02-18T20:16:08.690Z,56.81
2019-02-18T20:19:13.512Z,57.09
2019-02-18T20:22:17.938Z,57.73
2019-02-18T20:25:22.658Z,57.62
2019-02-18T20:28:27.090Z,58.07
2019-02-18T20:31:31.813Z,58.34
2019-02-18T20:34:36.252Z,58.83
2019-02-18T20:37:40.694Z,58.77
2019-02-18T20:40:45.389Z,59.08
2019-02-18T20:43:50.123Z,59.05
2019-02-18T20:46:54.852Z,58.90
2019-02-18T20:49:59.293Z,59.05
2019-02-18T20:53:03.723Z,58.92
2019-02-18T20:56:08.436Z,58.72
2019-02-18T20:59:12.877Z,58.51
2019-02-18T21:02:18.581Z,58.78
2019-02-18T21:05:23.068Z,58.73
2019-02-18T21:08:27.930Z,59.16
2019-02-18T21:11:32.376Z,59.46
2019-02-18T21:14:36.958Z,59.70
2019-02-18T21:17:41.564Z,60.39
2019-02-18T21:20:46.003Z,61.10
2019-02-18T21:23:50.670Z,60.25
2019-02-18T21:26:55.117Z,59.66
2019-02-18T21:29:59.858Z,59.86
2019-02-18T21:33:04.288Z,59.67
2019-02-18T21:36:09.040Z,59.89
2019-02-18T21:39:13.471Z,59.47
2019-02-18T21:42:17.978Z,59.48
2019-02-18T21:45:22.689Z,59.80
2019-02-18T21:48:27.119Z,60.33
2019-02-18T21:51:31.849Z,60.05
2019-02-18T21:54:36.580Z,60.07
2019-02-18T21:57:41.085Z,59.94
2019-02-18T22:00:45.522Z,60.57
2019-02-18T22:03:49.945Z,60.42
2019-02-18T22:06:54.781Z,61.00
2019-02-18T22:09:59.514Z,60.74
2019-02-18T22:13:04.219Z,61.07
2019-02-18T22:16:08.665Z,62.11
2019-02-18T22:19:13.096Z,60.76
2019-02-18T22:22:17.534Z,60.86
2019-02-18T22:25:21.958Z,60.64
2019-02-18T22:28:26.386Z,61.11
2019-02-18T22:31:30.827Z,61.70
2019-02-18T22:34:35.259Z,62.03
2019-02-18T22:37:40.868Z,61.11
2019-02-18T22:40:45.352Z,61.18
2019-02-18T22:43:50.117Z,61.72
2019-02-18T22:46:54.603Z,61.82
2019-02-18T22:49:59.032Z,62.55
2019-02-18T22:53:03.505Z,61.18
2019-02-18T22:56:07.924Z,62.14
2019-02-18T22:59:12.356Z,62.65
2019-02-18T23:02:16.790Z,62.85
2019-02-18T23:05:21.219Z,62.81
2019-02-18T23:08:25.722Z,62.60
2019-02-18T23:11:30.159Z,63.25
2019-02-18T23:14:34.783Z,62.31
2019-02-18T23:17:39.493Z,62.66
2019-02-18T23:20:43.919Z,63.08
2019-02-18T23:23:48.354Z,62.80
2019-02-18T23:26:53.074Z,63.42
2019-02-18T23:29:57.798Z,64.07
2019-02-18T23:33:02.532Z,63.81
2019-02-18T23:36:06.970Z,63.60
2019-02-18T23:39:11.407Z,63.82
2019-02-18T23:42:15.845Z,62.08
2019-02-18T23:45:20.277Z,62.93
2019-02-18T23:48:24.714Z,62.48
2019-02-18T23:51:29.148Z,62.23
2019-02-18T23:54:33.579Z,62.47
2019-02-18T23:57:38.024Z,63.76
